createdAt,value
2022-11-14T00:01:25.883Z,35.83
2022-11-14T00:04:13.425Z,35.22
2022-11-14T00:06:59.807Z,38.05
2022-11-14T00:09:46.372Z,46.70
2022-11-14T00:12:32.920Z,44.88
2022-11-14T00:15:19.601Z,45.25
2022-11-14T00:18:05.995Z,40.50
2022-11-14T00:20:54.436Z,35.15
2022-11-14T00:23:43.347Z,37.60
2022-11-14T00:26:29.934Z,36.55
2022-11-14T00:29:17.009Z,41.35
2022-11-14T00:32:03.607Z,46.33
2022-11-14T00:34:50.020Z,39.35
2022-11-14T00:37:37.593Z,41.83
2022-11-14T00:40:23.987Z,41.05
2022-11-14T00:43:10.087Z,38.13
2022-11-14T00:45:56.348Z,35.65
2022-11-14T00:48:42.809Z,30.88
2022-11-14T00:51:29.452Z,29.90
2022-11-14T00:54:16.915Z,34.75
2022-11-14T00:57:04.266Z,28.42
2022-11-14T00:59:50.484Z,24.33
2022-11-14T01:02:36.754Z,29.75
2022-11-14T01:05:22.965Z,31.77
2022-11-14T01:08:09.172Z,32.83
2022-11-14T01:10:56.569Z,28.42
2022-11-14T01:13:43.326Z,31.23
2022-11-14T01:16:29.646Z,32.13
2022-11-14T01:19:15.888Z,30.85
2022-11-14T01:22:06.133Z,32.35
2022-11-14T01:24:53.007Z,32.53
2022-11-14T01:27:40.428Z,30.80
2022-11-14T01:30:26.561Z,30.00
2022-11-14T01:33:12.831Z,30.92
2022-11-14T01:36:00.762Z,29.15
2022-11-14T01:38:47.412Z,25.23
2022-11-14T01:41:33.848Z,26.70
2022-11-14T01:44:55.527Z,26.13
2022-11-14T01:47:43.187Z,28.83
2022-11-14T01:50:29.731Z,28.63
2022-11-14T01:53:16.278Z,29.77
2022-11-14T01:56:05.854Z,26.92
2022-11-14T01:58:55.536Z,29.15
2022-11-14T02:01:46.857Z,33.97
2022-11-14T02:04:38.922Z,28.77
2022-11-14T02:07:28.499Z,32.33
2022-11-14T02:10:20.006Z,29.15
2022-11-14T02:13:06.941Z,36.92
2022-11-14T02:15:53.535Z,28.35
2022-11-14T02:18:39.594Z,29.63
2022-11-14T02:21:27.068Z,36.88
2022-11-14T02:24:13.866Z,35.72
2022-11-14T02:27:00.391Z,28.73
2022-11-14T02:29:46.845Z,32.22
2022-11-14T02:32:57.121Z,29.65
2022-11-14T02:35:39.397Z,33.10
2022-11-14T02:38:27.135Z,41.08
2022-11-14T02:41:13.621Z,30.88
2022-11-14T02:43:59.766Z,27.65
2022-11-14T02:46:45.935Z,33.85
2022-11-14T02:49:32.375Z,32.00
2022-11-14T02:52:19.141Z,22.52
2022-11-14T02:55:07.686Z,32.25
2022-11-14T02:57:53.920Z,28.23
2022-11-14T03:00:59.280Z,26.48
2022-11-14T03:03:46.641Z,30.92
2022-11-14T03:06:32.816Z,30.33
2022-11-14T03:09:19.287Z,25.70
2022-11-14T03:12:08.400Z,28.00
2022-11-14T03:14:54.585Z,19.58
2022-11-14T03:17:40.930Z,23.77
2022-11-14T03:20:27.692Z,23.80
2022-11-14T03:23:19.756Z,22.45
2022-11-14T03:26:07.905Z,22.70
2022-11-14T03:28:56.086Z,24.05
2022-11-14T03:31:42.611Z,21.52
2022-11-14T03:34:28.721Z,27.88
2022-11-14T03:37:14.936Z,20.55
2022-11-14T03:40:01.061Z,24.17
2022-11-14T03:42:47.245Z,25.52
2022-11-14T03:45:34.858Z,22.85
2022-11-14T03:48:21.179Z,20.25
2022-11-14T03:51:07.229Z,21.42
2022-11-14T03:53:53.337Z,27.35
2022-11-14T03:56:39.661Z,22.23
2022-11-14T03:59:25.752Z,24.23
2022-11-14T04:02:13.378Z,20.17
2022-11-14T04:04:59.627Z,19.63
2022-11-14T04:07:45.777Z,17.92
2022-11-14T04:10:31.970Z,24.02
2022-11-14T04:13:18.144Z,16.42
2022-11-14T04:16:04.632Z,23.27
2022-11-14T04:18:52.593Z,21.15
2022-11-14T04:21:38.756Z,25.15
2022-11-14T04:24:25.208Z,27.38
2022-11-14T04:27:11.616Z,21.70
2022-11-14T04:29:58.028Z,22.80
2022-11-14T04:32:47.844Z,25.75
2022-11-14T04:35:35.393Z,26.45
2022-11-14T04:38:21.585Z,17.00
2022-11-14T04:41:07.712Z,22.27
2022-11-14T04:43:53.878Z,23.73
2022-11-14T04:46:40.131Z,26.05
2022-11-14T04:49:26.205Z,21.52
2022-11-14T04:52:13.804Z,23.20
2022-11-14T04:55:00.044Z,23.80
2022-11-14T04:57:46.188Z,19.77
2022-11-14T05:00:32.564Z,27.40
2022-11-14T05:03:18.739Z,21.13
2022-11-14T05:06:05.260Z,17.75
2022-11-14T05:08:52.655Z,16.90
2022-11-14T05:11:38.940Z,21.15
2022-11-14T05:14:25.185Z,22.88
2022-11-14T05:17:11.330Z,25.75
2022-11-14T05:19:57.495Z,25.27
2022-11-14T05:22:43.598Z,28.13
2022-11-14T05:25:31.340Z,25.58
2022-11-14T05:28:17.725Z,26.23
2022-11-14T05:31:05.662Z,26.23
2022-11-14T05:33:52.472Z,22.17
2022-11-14T05:36:38.986Z,27.55
2022-11-14T05:39:25.317Z,27.15
2022-11-14T05:42:12.796Z,23.80
2022-11-14T05:44:59.006Z,25.40
2022-11-14T05:47:45.029Z,32.08
2022-11-14T05:50:31.255Z,25.25
2022-11-14T05:53:17.523Z,25.08
2022-11-14T05:56:04.773Z,24.23
2022-11-14T05:58:52.229Z,22.60
2022-11-14T06:01:38.328Z,25.38
2022-11-14T06:04:24.555Z,28.23
2022-11-14T06:07:10.952Z,22.50
2022-11-14T06:09:57.597Z,25.65
2022-11-14T06:12:43.734Z,29.35
2022-11-14T06:15:31.258Z,28.83
2022-11-14T06:18:17.525Z,25.13
2022-11-14T06:21:05.699Z,30.13
2022-11-14T06:23:52.602Z,28.10
2022-11-14T06:26:41.847Z,24.02
2022-11-14T06:29:32.659Z,31.30
2022-11-14T06:32:23.007Z,26.33
2022-11-14T06:35:09.476Z,27.83
2022-11-14T06:37:55.848Z,26.75
2022-11-14T06:40:42.078Z,21.63
2022-11-14T06:43:28.163Z,27.35
2022-11-14T06:46:18.049Z,22.75
2022-11-14T06:49:05.925Z,27.42
2022-11-14T06:51:52.550Z,24.83
2022-11-14T06:54:38.759Z,28.25
2022-11-14T06:57:24.975Z,33.88
2022-11-14T07:00:11.728Z,25.90
2022-11-14T07:02:58.098Z,24.35
2022-11-14T07:05:46.012Z,26.77
2022-11-14T07:08:32.999Z,25.60
2022-11-14T07:11:23.717Z,28.50
2022-11-14T07:14:10.327Z,22.83
2022-11-14T07:16:56.603Z,26.08
2022-11-14T07:19:42.800Z,23.33
2022-11-14T07:22:30.452Z,24.10
2022-11-14T07:25:17.030Z,22.33
2022-11-14T07:28:03.180Z,23.58
2022-11-14T07:30:49.452Z,24.80
2022-11-14T07:33:35.861Z,20.52
2022-11-14T07:36:22.012Z,27.10
2022-11-14T07:39:09.596Z,24.58
2022-11-14T07:41:56.082Z,26.52
2022-11-14T07:44:42.228Z,23.48
2022-11-14T07:47:28.448Z,21.25
2022-11-14T07:50:20.045Z,26.73
2022-11-14T07:53:07.491Z,23.13
2022-11-14T07:55:55.170Z,23.42
2022-11-14T07:58:43.127Z,20.98
2022-11-14T08:01:29.724Z,22.88
2022-11-14T08:04:16.096Z,26.58
2022-11-14T08:07:02.155Z,20.40
2022-11-14T08:09:48.358Z,23.55
2022-11-14T08:12:35.847Z,24.02
2022-11-14T08:15:21.892Z,23.98
2022-11-14T08:18:08.126Z,24.40
2022-11-14T08:20:57.427Z,23.08
2022-11-14T08:23:45.391Z,24.50
2022-11-14T08:26:34.234Z,23.88
2022-11-14T08:29:22.288Z,27.60
2022-11-14T08:32:08.604Z,24.02
2022-11-14T08:34:54.621Z,23.27
2022-11-14T08:37:41.075Z,24.48
2022-11-14T08:40:27.185Z,21.90
2022-11-14T08:43:13.653Z,25.98
2022-11-14T08:46:02.429Z,22.20
2022-11-14T08:48:48.824Z,24.23
2022-11-14T08:51:36.512Z,24.65
2022-11-14T08:54:23.300Z,20.25
2022-11-14T08:57:09.624Z,28.00
2022-11-14T08:59:55.863Z,26.10
2022-11-14T09:02:43.541Z,29.20
2022-11-14T09:05:29.784Z,33.58
2022-11-14T09:08:16.295Z,25.50
2022-11-14T09:11:05.532Z,25.45
2022-11-14T09:13:52.182Z,27.70
2022-11-14T09:16:38.275Z,31.70
2022-11-14T09:19:25.865Z,29.42
2022-11-14T09:22:12.137Z,34.42
2022-11-14T09:24:58.186Z,33.70
2022-11-14T09:27:44.276Z,34.65
2022-11-14T09:30:30.540Z,42.85
2022-11-14T09:33:16.856Z,38.53
2022-11-14T09:36:07.484Z,31.58
2022-11-14T09:38:54.042Z,33.80
2022-11-14T09:41:54.020Z,35.90
2022-11-14T09:44:54.761Z,28.20
2022-11-14T09:47:45.138Z,25.75
2022-11-14T09:50:35.749Z,22.90
2022-11-14T09:53:30.119Z,20.52
2022-11-14T09:56:22.963Z,19.75
2022-11-14T09:59:11.742Z,16.52
2022-11-14T10:02:03.205Z,18.75
2022-11-14T10:05:02.368Z,17.83
2022-11-14T10:08:21.894Z,13.07
2022-11-14T10:11:13.755Z,11.40
2022-11-14T10:14:19.450Z,10.23
2022-11-14T10:17:19.004Z,9.60
2022-11-14T10:20:14.491Z,8.63
2022-11-14T10:26:06.412Z,24.58
2022-11-14T10:29:13.082Z,23.27
2022-11-14T10:32:06.765Z,30.10
2022-11-14T10:34:57.833Z,24.73
2022-11-14T10:37:54.422Z,33.08
2022-11-14T10:40:43.862Z,40.92
2022-11-14T10:43:37.004Z,34.58
2022-11-14T10:46:29.487Z,54.40
2022-11-14T10:49:18.941Z,49.30
2022-11-14T10:52:08.591Z,22.80
2022-11-14T10:55:01.144Z,18.73
2022-11-14T10:57:47.353Z,19.85
2022-11-14T11:00:33.553Z,17.88
2022-11-14T11:03:21.191Z,17.17
2022-11-14T11:06:07.452Z,13.82
2022-11-14T11:09:11.125Z,15.82
2022-11-14T11:11:59.224Z,14.85
2022-11-14T11:14:46.650Z,9.88
2022-11-14T11:17:38.491Z,12.30
2022-11-14T11:20:31.971Z,11.68
2022-11-14T11:23:22.869Z,10.82
2022-11-14T11:26:18.972Z,14.55
2022-11-14T11:29:08.858Z,14.65
2022-11-14T11:31:57.834Z,12.00
2022-11-14T11:34:44.593Z,13.57
2022-11-14T11:37:39.994Z,14.88
2022-11-14T11:40:28.340Z,11.45
2022-11-14T11:46:33.375Z,12.05
2022-11-14T11:49:29.170Z,5.38
2022-11-14T11:52:20.914Z,7.18
2022-11-14T11:55:18.366Z,4.18
2022-11-14T11:58:13.202Z,3.28
2022-11-14T12:03:49.361Z,3.45
2022-11-14T12:06:45.139Z,3.95
2022-11-14T12:10:03.638Z,4.32
2022-11-14T12:12:57.029Z,2.42
2022-11-14T12:15:52.762Z,2.95
2022-11-14T12:18:52.102Z,1.90
2022-11-14T12:22:03.259Z,1.95
2022-11-14T12:24:59.822Z,2.80
2022-11-14T12:28:01.530Z,2.38
2022-11-14T12:30:52.795Z,3.80
2022-11-14T12:33:45.029Z,3.08
2022-11-14T12:36:33.159Z,3.13
2022-11-14T12:39:26.308Z,3.50
2022-11-14T12:42:20.496Z,3.22
2022-11-14T12:45:53.464Z,2.95
2022-11-14T12:48:40.866Z,3.88
2022-11-14T12:51:50.587Z,2.67
2022-11-14T12:54:44.501Z,4.05
2022-11-14T12:57:48.537Z,2.23
2022-11-14T13:00:40.326Z,3.20
2022-11-14T13:03:39.491Z,2.65
2022-11-14T13:06:34.017Z,2.72
2022-11-14T13:09:35.315Z,2.50
2022-11-14T13:12:47.197Z,2.92
2022-11-14T13:15:55.514Z,2.17
2022-11-14T13:19:14.065Z,1.95
2022-11-14T13:22:35.976Z,4.97
2022-11-14T13:25:24.681Z,1.98
2022-11-14T13:28:47.839Z,2.20
2022-11-14T13:31:51.281Z,4.38
2022-11-14T13:34:43.494Z,2.15
2022-11-14T13:37:46.144Z,1.83
2022-11-14T13:40:38.543Z,1.95
2022-11-14T13:43:38.353Z,5.05
2022-11-14T13:46:41.655Z,2.20
2022-11-14T13:49:47.925Z,2.10
2022-11-14T13:52:36.632Z,3.28
2022-11-14T13:55:24.225Z,2.35
2022-11-14T13:58:24.652Z,2.92
2022-11-14T14:01:24.594Z,3.55
2022-11-14T14:04:24.747Z,3.08
2022-11-14T14:07:24.706Z,2.95
2022-11-14T14:10:24.431Z,2.45
2022-11-14T14:13:40.234Z,2.92
2022-11-14T14:19:29.442Z,2.70
2022-11-14T14:22:23.685Z,2.72
2022-11-14T14:25:19.620Z,3.40
2022-11-14T14:28:15.547Z,3.10
2022-11-14T14:31:03.161Z,3.30
2022-11-14T14:33:51.361Z,4.32
2022-11-14T14:36:37.700Z,3.60
2022-11-14T14:39:26.731Z,3.80
2022-11-14T14:42:14.268Z,4.32
2022-11-14T14:45:00.650Z,3.67
2022-11-14T14:47:50.172Z,5.57
2022-11-14T14:50:41.107Z,5.40
2022-11-14T14:53:29.837Z,3.80
2022-11-14T14:56:21.787Z,4.57
2022-11-14T14:59:18.676Z,5.15
2022-11-14T15:02:14.606Z,2.60
2022-11-14T15:05:01.649Z,2.97
2022-11-14T15:07:49.532Z,3.40
2022-11-14T15:10:36.368Z,2.40
2022-11-14T15:13:26.201Z,3.78
2022-11-14T15:16:13.852Z,2.50
2022-11-14T15:19:01.869Z,3.63
2022-11-14T15:22:03.399Z,4.00
2022-11-14T15:25:20.295Z,3.58
2022-11-14T15:28:17.770Z,5.38
2022-11-14T15:31:06.426Z,4.43
2022-11-14T15:34:03.872Z,2.78
2022-11-14T15:37:22.797Z,2.50
2022-11-14T15:40:19.367Z,4.10
2022-11-14T15:43:36.615Z,5.22
2022-11-14T15:46:54.116Z,3.70
2022-11-14T15:49:40.768Z,6.53
2022-11-14T15:52:34.990Z,6.75
2022-11-14T15:55:25.197Z,6.07
2022-11-14T15:58:40.597Z,6.25
2022-11-14T16:01:25.819Z,4.35
2022-11-14T16:04:16.958Z,3.85
2022-11-14T16:07:03.295Z,3.88
2022-11-14T16:09:50.024Z,4.35
2022-11-14T16:12:36.173Z,1.67
2022-11-14T16:15:22.869Z,5.78
2022-11-14T16:18:08.912Z,7.45
2022-11-14T16:20:59.282Z,3.38
2022-11-14T16:23:45.550Z,7.85
2022-11-14T16:26:31.639Z,4.95
2022-11-14T16:29:19.316Z,7.75
2022-11-14T16:32:05.833Z,6.00
2022-11-14T16:34:52.116Z,6.72
2022-11-14T16:37:39.603Z,5.82
2022-11-14T16:40:27.994Z,7.88
2022-11-14T16:43:15.486Z,4.25
2022-11-14T16:46:04.867Z,5.45
2022-11-14T16:48:51.620Z,4.05
2022-11-14T16:51:47.930Z,5.65
2022-11-14T16:54:36.802Z,7.03
2022-11-14T16:57:23.283Z,4.55
2022-11-14T17:00:12.172Z,5.32
2022-11-14T17:02:58.172Z,5.03
2022-11-14T17:05:45.071Z,10.20
2022-11-14T17:08:31.285Z,6.90
2022-11-14T17:11:18.782Z,5.63
2022-11-14T17:14:04.950Z,8.20
2022-11-14T17:16:51.119Z,8.80
2022-11-14T17:19:38.920Z,10.13
2022-11-14T17:22:25.484Z,7.20
2022-11-14T17:25:12.616Z,7.43
2022-11-14T17:28:00.503Z,5.30
2022-11-14T17:30:47.058Z,14.13
2022-11-14T17:33:33.652Z,5.65
2022-11-14T17:36:20.406Z,7.03
2022-11-14T17:39:06.904Z,4.97
2022-11-14T17:41:53.370Z,3.95
2022-11-14T17:44:40.843Z,5.25
2022-11-14T17:47:26.977Z,5.75
2022-11-14T17:50:13.270Z,5.60
2022-11-14T17:52:59.259Z,6.57
2022-11-14T17:55:45.692Z,5.65
2022-11-14T17:58:35.834Z,5.78
2022-11-14T18:01:26.027Z,12.93
2022-11-14T18:04:12.733Z,4.75
2022-11-14T18:06:59.011Z,6.85
2022-11-14T18:09:45.243Z,7.72
2022-11-14T18:12:31.224Z,7.78
2022-11-14T18:15:17.738Z,6.75
2022-11-14T18:18:06.036Z,6.70
2022-11-14T18:20:52.085Z,9.30
2022-11-14T18:23:39.510Z,7.43
2022-11-14T18:26:28.549Z,7.07
2022-11-14T18:29:15.629Z,6.20
2022-11-14T18:32:01.776Z,6.53
2022-11-14T18:34:49.361Z,7.72
2022-11-14T18:37:35.777Z,6.82
2022-11-14T18:40:22.048Z,7.32
2022-11-14T18:43:08.406Z,8.35
2022-11-14T18:45:54.764Z,9.02
2022-11-14T18:48:43.922Z,6.32
2022-11-14T18:51:32.319Z,7.00
2022-11-14T18:54:18.950Z,8.13
2022-11-14T18:57:05.099Z,7.28
2022-11-14T18:59:51.187Z,10.00
2022-11-14T19:02:37.398Z,8.90
2022-11-14T19:05:23.449Z,11.93
2022-11-14T19:08:14.030Z,9.35
2022-11-14T19:11:04.163Z,9.48
2022-11-14T19:13:50.698Z,7.53
2022-11-14T19:16:38.254Z,9.35
2022-11-14T19:19:24.378Z,13.05
2022-11-14T19:22:10.643Z,9.40
2022-11-14T19:24:58.988Z,7.47
2022-11-14T19:27:50.321Z,7.13
2022-11-14T19:30:36.686Z,10.35
2022-11-14T19:33:22.797Z,8.38
2022-11-14T19:36:11.807Z,9.23
2022-11-14T19:38:59.649Z,11.18
2022-11-14T19:41:47.549Z,10.60
2022-11-14T19:44:33.931Z,7.93
2022-11-14T19:47:20.047Z,10.05
2022-11-14T19:50:06.670Z,9.43
2022-11-14T19:52:53.083Z,12.40
2022-11-14T19:55:39.387Z,10.50
2022-11-14T19:58:27.000Z,8.70
2022-11-14T20:01:15.645Z,11.57
2022-11-14T20:04:03.446Z,8.90
2022-11-14T20:06:50.004Z,10.98
2022-11-14T20:09:36.385Z,9.93
2022-11-14T20:12:22.757Z,11.82
2022-11-14T20:15:11.498Z,11.23
2022-11-14T20:17:58.425Z,10.15
2022-11-14T20:20:44.760Z,12.52
2022-11-14T20:23:31.266Z,12.00
2022-11-14T20:26:18.926Z,14.80
2022-11-14T20:29:07.076Z,11.77
2022-11-14T20:31:55.145Z,13.45
2022-11-14T20:34:41.304Z,14.95
2022-11-14T20:37:27.752Z,12.73
2022-11-14T20:40:14.143Z,16.83
2022-11-14T20:43:01.762Z,13.60
2022-11-14T20:45:58.866Z,15.50
2022-11-14T20:48:47.321Z,15.02
2022-11-14T20:51:36.399Z,13.40
2022-11-14T20:54:22.700Z,13.65
2022-11-14T20:57:08.967Z,14.13
2022-11-14T20:59:55.256Z,15.98
2022-11-14T21:02:41.480Z,16.42
2022-11-14T21:05:28.921Z,15.48
2022-11-14T21:08:16.353Z,15.85
2022-11-14T21:11:05.043Z,11.82
2022-11-14T21:13:57.118Z,10.45
2022-11-14T21:16:43.450Z,10.85
2022-11-14T21:19:30.110Z,10.68
2022-11-14T21:22:17.670Z,10.02
2022-11-14T21:25:03.891Z,9.35
2022-11-14T21:27:49.979Z,10.80
2022-11-14T21:30:36.179Z,10.35
2022-11-14T21:33:22.643Z,13.80
2022-11-14T21:36:30.086Z,10.85
2022-11-14T21:39:17.951Z,12.05
2022-11-14T21:42:04.249Z,10.32
2022-11-14T21:44:50.481Z,10.63
2022-11-14T21:47:36.627Z,9.27
2022-11-14T21:50:23.199Z,13.02
2022-11-14T21:53:15.749Z,15.05
2022-11-14T21:56:10.341Z,13.20
2022-11-14T21:59:11.772Z,15.90
2022-11-14T22:02:15.733Z,15.80
2022-11-14T22:05:01.901Z,14.40
2022-11-14T22:07:48.021Z,15.70
2022-11-14T22:10:34.199Z,15.35
2022-11-14T22:13:21.722Z,11.52
2022-11-14T22:16:09.331Z,14.25
2022-11-14T22:19:01.960Z,15.50
2022-11-14T22:21:51.290Z,11.23
2022-11-14T22:24:37.433Z,11.15
2022-11-14T22:27:23.590Z,12.40
2022-11-14T22:30:12.417Z,10.88
2022-11-14T22:33:00.179Z,11.80
2022-11-14T22:35:46.302Z,11.43
2022-11-14T22:38:33.108Z,10.13
2022-11-14T22:41:20.921Z,10.85
2022-11-14T22:44:07.390Z,12.65
2022-11-14T22:46:54.874Z,10.85
2022-11-14T22:49:41.085Z,14.95
2022-11-14T22:52:27.123Z,11.38
2022-11-14T22:55:17.920Z,13.40
2022-11-14T22:58:04.760Z,9.48
2022-11-14T23:00:51.938Z,15.77
2022-11-14T23:03:40.166Z,12.88
2022-11-14T23:06:27.312Z,14.75
2022-11-14T23:09:13.786Z,10.48
2022-11-14T23:12:00.131Z,14.95
2022-11-14T23:14:46.260Z,8.95
2022-11-14T23:17:32.788Z,11.00
2022-11-14T23:20:21.017Z,9.90
2022-11-14T23:23:07.438Z,12.32
2022-11-14T23:25:53.702Z,11.48
2022-11-14T23:28:40.628Z,12.70
2022-11-14T23:31:27.420Z,9.27
2022-11-14T23:38:21.787Z,12.32
2022-11-14T23:41:08.795Z,10.90
2022-11-14T23:43:55.019Z,10.30
2022-11-14T23:46:41.251Z,11.48
2022-11-14T23:49:27.527Z,9.25
2022-11-14T23:52:13.639Z,13.73
2022-11-14T23:55:02.580Z,11.90
2022-11-14T23:57:48.686Z,8.70
